Time;durP1;ratioP1;P1;durP2;ratioP2;P2;SDS_P1;SDS_P2;PMS_P1;PMS_P2;Temp;Humidity;BMP_temperature;BMP_pressure;BME280_temperature;BME280_humidity;BME280_pressure;Samples;Min_cycle;Max_cycle;Signal;HPM_P1;HPM_P2
2022/10/15 00:01:25;;;;;;;;;;;28.60;99.90;;;;;;5032842;28;19917;-51
2022/10/15 00:03:50;;;;;;;;;;;28.60;99.90;;;;;;5032253;28;19909;-51
2022/10/15 00:06:18;;;;;;;;;;;28.60;99.90;;;;;;5047551;28;20020;-52
2022/10/15 00:08:44;;;;;;;;;;;28.60;99.90;;;;;;5032247;28;19966;-52
2022/10/15 00:11:11;;;;;;;;;;;28.60;99.90;;;;;;5032202;28;19905;-51
2022/10/15 00:13:37;;;;;;;;;;;28.60;99.90;;;;;;5032344;28;19905;-52
2022/10/15 00:16:03;;;;;;;;;;;28.60;99.90;;;;;;5032039;28;19967;-51
2022/10/15 00:18:29;;;;;;;;;;;28.60;99.90;;;;;;5032089;28;20000;-52
2022/10/15 00:20:55;;;;;;;;;;;28.60;99.90;;;;;;5031974;28;19999;-51
2022/10/15 00:23:20;;;;;;;;;;;28.50;99.90;;;;;;5031974;28;19905;-51
2022/10/15 00:25:46;;;;;;;;;;;28.50;99.90;;;;;;5032021;28;20360;-52
2022/10/15 00:28:12;;;;;;;;;;;28.50;99.90;;;;;;5032341;28;19909;-51
2022/10/15 00:30:37;;;;;;;;;;;28.50;99.90;;;;;;5032271;28;19948;-51
2022/10/15 00:33:03;;;;;;;;;;;28.50;99.90;;;;;;5031001;28;19905;-51
2022/10/15 00:35:28;;;;;;;;;;;28.50;99.90;;;;;;5031982;28;19905;-51
2022/10/15 00:37:54;;;;;;;;;;;28.40;99.90;;;;;;5030373;28;19959;-51
2022/10/15 00:40:20;;;;;;;;;;;28.40;99.90;;;;;;5031710;28;20356;-52
2022/10/15 00:42:45;;;;;;;;;;;28.40;99.90;;;;;;5031752;28;20000;-51
2022/10/15 00:45:12;;;;;;;;;;;28.40;99.90;;;;;;5031776;28;19902;-52
2022/10/15 00:47:39;;;;;;;;;;;28.40;99.90;;;;;;5031709;28;19912;-52
2022/10/15 00:50:07;;;;;;;;;;;28.40;99.90;;;;;;5031779;28;20272;-51
2022/10/15 00:52:38;;;;;;;;;;;28.30;99.90;;;;;;5031581;28;20035;-51
2022/10/15 00:55:09;;;;;;;;;;;28.30;99.90;;;;;;5030179;28;19901;-51
2022/10/15 00:57:35;;;;;;;;;;;28.30;99.90;;;;;;5031537;28;19913;-51
2022/10/15 01:00:04;;;;;;;;;;;28.30;99.90;;;;;;5043722;22;20288;-52
2022/10/15 01:02:29;;;;;;;;;;;28.30;99.90;;;;;;5031333;28;19905;-51
2022/10/15 01:04:55;;;;;;;;;;;28.30;99.90;;;;;;5031417;28;20362;-52
2022/10/15 01:07:21;;;;;;;;;;;28.30;99.90;;;;;;5031256;28;19959;-51
2022/10/15 01:09:46;;;;;;;;;;;28.30;99.90;;;;;;5031205;28;19955;-53
2022/10/15 01:12:21;;;;;;;;;;;28.20;99.90;;;;;;5031429;28;19905;-52
2022/10/15 01:14:46;;;;;;;;;;;28.30;99.90;;;;;;5031213;28;19905;-52
2022/10/15 01:17:41;;;;;;;;;;;28.20;99.90;;;;;;5031231;28;19913;-52
2022/10/15 01:20:19;;;;;;;;;;;28.20;99.90;;;;;;5026294;28;19940;-52
2022/10/15 01:22:56;;;;;;;;;;;28.20;99.90;;;;;;5031146;28;19996;-52
2022/10/15 01:25:21;;;;;;;;;;;28.20;99.90;;;;;;5030960;28;19912;-52
2022/10/15 01:27:55;;;;;;;;;;;28.20;99.90;;;;;;5031045;28;19988;-52
2022/10/15 01:30:20;;;;;;;;;;;28.20;99.90;;;;;;5030967;28;19905;-52
2022/10/15 01:32:49;;;;;;;;;;;28.10;99.90;;;;;;5031105;28;19959;-52
2022/10/15 01:35:18;;;;;;;;;;;28.10;99.90;;;;;;5031066;28;19943;-52
2022/10/15 01:37:49;;;;;;;;;;;28.10;99.90;;;;;;5031077;28;19913;-52
2022/10/15 01:40:20;;;;;;;;;;;28.10;99.90;;;;;;5030985;28;20351;-52
2022/10/15 01:42:49;;;;;;;;;;;28.10;99.90;;;;;;5031004;28;19913;-52
2022/10/15 01:45:35;;;;;;;;;;;28.10;99.90;;;;;;5033758;28;19905;-52
2022/10/15 01:48:05;;;;;;;;;;;28.00;99.90;;;;;;5034497;28;20284;-52
2022/10/15 01:50:32;;;;;;;;;;;28.10;99.90;;;;;;5034641;28;20402;-52
2022/10/15 01:52:59;;;;;;;;;;;28.10;99.90;;;;;;5034875;28;19905;-52
2022/10/15 01:55:25;;;;;;;;;;;28.00;99.90;;;;;;5033715;28;19905;-52
2022/10/15 01:57:51;;;;;;;;;;;28.00;99.90;;;;;;5034590;28;19920;-53
2022/10/15 02:00:17;;;;;;;;;;;28.00;99.90;;;;;;5047177;22;19921;-58
2022/10/15 02:02:42;;;;;;;;;;;28.00;99.90;;;;;;5034901;28;20014;-57
2022/10/15 02:05:14;;;;;;;;;;;28.00;99.90;;;;;;5034771;28;19905;-58
2022/10/15 02:07:47;;;;;;;;;;;28.00;99.90;;;;;;5034813;28;20012;-58
2022/10/15 02:10:17;;;;;;;;;;;27.90;99.90;;;;;;5034782;28;19916;-57
2022/10/15 02:12:42;;;;;;;;;;;28.00;99.90;;;;;;5034857;28;19991;-58
2022/10/15 02:15:11;;;;;;;;;;;28.00;99.90;;;;;;5034683;28;19997;-57
2022/10/15 02:17:50;;;;;;;;;;;28.00;99.90;;;;;;5034512;28;19917;-57
2022/10/15 02:20:21;;;;;;;;;;;27.90;99.90;;;;;;5034508;28;19958;-57
2022/10/15 02:22:55;;;;;;;;;;;27.90;99.90;;;;;;5034561;28;20361;-57
2022/10/15 02:25:22;;;;;;;;;;;27.90;99.90;;;;;;5034300;28;20360;-58
2022/10/15 02:27:49;;;;;;;;;;;27.90;99.90;;;;;;5034390;28;20279;-57
2022/10/15 02:30:15;;;;;;;;;;;27.90;99.90;;;;;;5034525;28;20341;-58
2022/10/15 02:32:41;;;;;;;;;;;27.90;99.90;;;;;;5034227;28;19984;-58
2022/10/15 02:35:09;;;;;;;;;;;27.90;99.90;;;;;;5034246;28;19909;-57
2022/10/15 02:37:35;;;;;;;;;;;27.80;99.90;;;;;;5034129;28;19952;-58
2022/10/15 02:40:01;;;;;;;;;;;27.90;99.90;;;;;;5034051;28;19905;-57
2022/10/15 02:42:27;;;;;;;;;;;27.80;99.90;;;;;;5034025;28;20344;-56
2022/10/15 02:44:52;;;;;;;;;;;27.80;99.90;;;;;;5034017;28;20330;-57
2022/10/15 02:47:18;;;;;;;;;;;27.80;99.90;;;;;;5033861;28;19909;-58
2022/10/15 02:49:44;;;;;;;;;;;27.80;99.90;;;;;;5034065;28;19912;-57
2022/10/15 02:52:09;;;;;;;;;;;27.80;99.90;;;;;;5034040;28;20003;-58
2022/10/15 02:54:35;;;;;;;;;;;27.80;99.90;;;;;;5033813;28;19905;-58
2022/10/15 02:57:00;;;;;;;;;;;27.80;99.90;;;;;;5032777;28;20364;-58
2022/10/15 02:59:26;;;;;;;;;;;27.80;99.90;;;;;;5034211;28;19941;-58
2022/10/15 03:01:52;;;;;;;;;;;27.80;99.90;;;;;;5033898;28;19915;-59
2022/10/15 03:04:18;;;;;;;;;;;27.70;99.90;;;;;;5033779;28;19905;-58
2022/10/15 03:06:44;;;;;;;;;;;27.70;99.90;;;;;;5033763;28;19931;-58
2022/10/15 03:09:09;;;;;;;;;;;27.70;99.90;;;;;;5033568;28;19975;-58
2022/10/15 03:11:36;;;;;;;;;;;27.70;99.90;;;;;;5033437;28;20325;-58
2022/10/15 03:14:02;;;;;;;;;;;27.70;99.90;;;;;;5033419;28;19905;-59
2022/10/15 03:16:27;;;;;;;;;;;27.70;99.90;;;;;;5033292;28;20265;-58
2022/10/15 03:18:53;;;;;;;;;;;27.70;99.90;;;;;;5033429;28;19905;-58
2022/10/15 03:21:18;;;;;;;;;;;27.70;99.90;;;;;;5033399;28;20288;-58
2022/10/15 03:23:44;;;;;;;;;;;27.70;99.90;;;;;;5033465;28;19905;-59
2022/10/15 03:26:10;;;;;;;;;;;27.70;99.90;;;;;;5033194;28;19957;-58
2022/10/15 03:28:35;;;;;;;;;;;27.60;99.90;;;;;;5033147;28;20345;-59
2022/10/15 03:31:01;;;;;;;;;;;27.60;99.90;;;;;;5033288;28;19908;-57
2022/10/15 03:33:27;;;;;;;;;;;27.60;99.90;;;;;;5033013;28;19912;-58
2022/10/15 03:35:53;;;;;;;;;;;27.60;99.90;;;;;;5032886;28;20371;-58
2022/10/15 03:38:18;;;;;;;;;;;27.60;99.90;;;;;;5033115;28;19913;-58
2022/10/15 03:40:44;;;;;;;;;;;27.60;99.90;;;;;;5032953;28;20313;-59
2022/10/15 03:43:10;;;;;;;;;;;27.60;99.90;;;;;;5032962;28;20068;-58
2022/10/15 03:45:35;;;;;;;;;;;27.60;99.90;;;;;;5032903;28;19959;-58
2022/10/15 03:48:01;;;;;;;;;;;27.60;99.90;;;;;;5032799;28;19911;-59
2022/10/15 03:50:27;;;;;;;;;;;27.50;99.90;;;;;;5032645;28;19912;-58
2022/10/15 03:52:52;;;;;;;;;;;27.50;99.90;;;;;;5032774;28;20404;-59
2022/10/15 03:55:18;;;;;;;;;;;27.50;99.90;;;;;;5032864;28;19916;-58
2022/10/15 03:57:43;;;;;;;;;;;27.60;99.90;;;;;;5032505;28;19974;-59
2022/10/15 04:00:11;;;;;;;;;;;27.50;99.90;;;;;;5066667;22;19944;-52
2022/10/15 04:02:37;;;;;;;;;;;27.50;99.90;;;;;;5032773;28;20284;-53
2022/10/15 04:05:02;;;;;;;;;;;27.50;99.90;;;;;;5032429;28;19905;-53
2022/10/15 04:07:28;;;;;;;;;;;27.50;99.90;;;;;;5031964;28;19988;-53
2022/10/15 04:09:54;;;;;;;;;;;27.40;99.90;;;;;;5032279;28;19905;-53
2022/10/15 04:12:19;;;;;;;;;;;27.50;99.90;;;;;;5032345;28;19905;-52
2022/10/15 04:14:45;;;;;;;;;;;27.50;99.90;;;;;;5032041;28;19996;-52
2022/10/15 04:17:10;;;;;;;;;;;27.50;99.90;;;;;;5031926;28;19917;-53
2022/10/15 04:19:36;;;;;;;;;;;27.40;99.90;;;;;;5031944;28;19916;-54
2022/10/15 04:22:01;;;;;;;;;;;27.40;99.90;;;;;;5031903;28;19905;-52
2022/10/15 04:24:27;;;;;;;;;;;27.40;99.90;;;;;;5031748;28;20316;-53
2022/10/15 04:26:53;;;;;;;;;;;27.40;99.90;;;;;;5031735;28;20353;-52
2022/10/15 04:29:18;;;;;;;;;;;27.40;99.90;;;;;;5031980;28;19909;-53
2022/10/15 04:31:44;;;;;;;;;;;27.40;99.90;;;;;;5031683;28;20353;-52
2022/10/15 04:34:09;;;;;;;;;;;27.40;99.90;;;;;;5031707;28;19924;-52
2022/10/15 04:36:35;;;;;;;;;;;27.40;99.90;;;;;;5031498;28;19913;-52
2022/10/15 04:39:01;;;;;;;;;;;27.40;99.90;;;;;;5031818;28;19905;-53
2022/10/15 04:41:26;;;;;;;;;;;27.40;99.90;;;;;;5031679;28;19944;-53
2022/10/15 04:43:52;;;;;;;;;;;27.30;99.90;;;;;;5031952;28;19905;-54
2022/10/15 04:46:21;;;;;;;;;;;27.30;99.90;;;;;;5031692;28;19905;-54
2022/10/15 04:48:46;;;;;;;;;;;27.30;99.90;;;;;;5031541;28;19909;-53
2022/10/15 04:51:13;;;;;;;;;;;27.30;99.90;;;;;;5031509;28;20383;-54
2022/10/15 04:53:39;;;;;;;;;;;27.30;99.90;;;;;;5031359;28;19909;-54
2022/10/15 04:56:06;;;;;;;;;;;27.30;99.90;;;;;;5031342;28;20082;-53
2022/10/15 04:58:32;;;;;;;;;;;27.30;99.90;;;;;;5031389;28;19905;-53
2022/10/15 05:00:59;;;;;;;;;;;27.30;99.90;;;;;;5031215;28;19967;-53
2022/10/15 05:03:24;;;;;;;;;;;27.30;99.90;;;;;;5031450;28;19905;-53
2022/10/15 05:05:50;;;;;;;;;;;27.30;99.90;;;;;;5031432;28;19912;-53
2022/10/15 05:08:15;;;;;;;;;;;27.30;99.90;;;;;;5031434;28;19982;-53
2022/10/15 05:10:41;;;;;;;;;;;27.20;99.90;;;;;;5031197;28;19901;-53
2022/10/15 05:13:06;;;;;;;;;;;27.20;99.90;;;;;;5031112;28;19909;-54
2022/10/15 05:15:32;;;;;;;;;;;27.20;99.90;;;;;;5031302;28;19992;-53
2022/10/15 05:17:58;;;;;;;;;;;27.20;99.90;;;;;;5031130;28;19917;-54
2022/10/15 05:20:23;;;;;;;;;;;27.20;99.90;;;;;;5034661;28;19913;-53
2022/10/15 05:22:49;;;;;;;;;;;27.20;99.90;;;;;;5035451;28;19931;-54
2022/10/15 05:25:14;;;;;;;;;;;27.20;99.90;;;;;;5035208;28;19909;-53
2022/10/15 05:27:40;;;;;;;;;;;27.20;99.90;;;;;;5035167;28;19912;-52
2022/10/15 05:30:06;;;;;;;;;;;27.20;99.90;;;;;;5035150;28;19959;-52
2022/10/15 05:32:31;;;;;;;;;;;27.20;99.90;;;;;;5035018;28;19950;-52
2022/10/15 05:34:57;;;;;;;;;;;27.20;99.90;;;;;;5035081;28;19912;-52
2022/10/15 05:37:22;;;;;;;;;;;27.20;99.90;;;;;;5035056;28;19924;-53
2022/10/15 05:39:48;;;;;;;;;;;27.20;99.90;;;;;;5034807;28;20055;-53
2022/10/15 05:42:13;;;;;;;;;;;27.20;99.90;;;;;;5034872;28;19905;-54
2022/10/15 05:44:39;;;;;;;;;;;27.20;99.90;;;;;;5034883;28;19911;-52
2022/10/15 05:47:05;;;;;;;;;;;27.10;99.90;;;;;;5050164;28;19905;-52
2022/10/15 05:49:31;;;;;;;;;;;27.10;99.90;;;;;;5034696;28;19912;-57
2022/10/15 05:51:56;;;;;;;;;;;27.10;99.90;;;;;;5034835;28;19916;-52
2022/10/15 05:54:22;;;;;;;;;;;27.10;99.90;;;;;;5034962;28;19905;-52
2022/10/15 05:56:47;;;;;;;;;;;27.10;99.90;;;;;;5034482;28;19967;-52
2022/10/15 05:59:13;;;;;;;;;;;27.10;99.90;;;;;;5034495;28;19905;-52
2022/10/15 06:01:39;;;;;;;;;;;27.00;99.90;;;;;;5034427;28;20312;-52
2022/10/15 06:04:04;;;;;;;;;;;27.00;99.90;;;;;;5034493;28;20000;-53
2022/10/15 06:06:30;;;;;;;;;;;27.00;99.90;;;;;;5034300;28;20457;-54
2022/10/15 06:08:57;;;;;;;;;;;27.00;99.90;;;;;;5034447;28;19915;-52
2022/10/15 06:11:22;;;;;;;;;;;27.00;99.90;;;;;;5034358;28;19901;-53
2022/10/15 06:13:48;;;;;;;;;;;27.00;99.90;;;;;;5034055;28;19955;-52
2022/10/15 06:16:14;;;;;;;;;;;27.00;99.90;;;;;;5034170;28;19912;-52
2022/10/15 06:18:40;;;;;;;;;;;27.00;99.90;;;;;;5034051;28;19995;-52
2022/10/15 06:21:06;;;;;;;;;;;27.00;99.90;;;;;;5034223;28;20497;-52
2022/10/15 06:23:32;;;;;;;;;;;27.00;99.90;;;;;;5032973;28;19905;-52
2022/10/15 06:26:05;;;;;;;;;;;26.90;99.90;;;;;;5032726;28;19912;-52
2022/10/15 06:28:31;;;;;;;;;;;27.00;99.90;;;;;;5034024;28;20071;-52
2022/10/15 06:30:58;;;;;;;;;;;26.90;99.90;;;;;;5032831;28;20054;-53
2022/10/15 06:33:23;;;;;;;;;;;26.90;99.90;;;;;;5033926;28;20341;-53
2022/10/15 06:35:49;;;;;;;;;;;26.90;99.90;;;;;;5033976;28;19995;-53
2022/10/15 06:38:15;;;;;;;;;;;26.90;99.90;;;;;;5033811;28;20311;-53
2022/10/15 06:40:40;;;;;;;;;;;26.90;99.90;;;;;;5033845;28;19909;-53
2022/10/15 06:43:06;;;;;;;;;;;26.90;99.90;;;;;;5033817;28;20237;-53
2022/10/15 06:45:35;;;;;;;;;;;26.90;99.90;;;;;;5032476;28;19905;-52
2022/10/15 06:48:02;;;;;;;;;;;26.90;99.90;;;;;;5033756;28;19916;-53
2022/10/15 06:50:28;;;;;;;;;;;26.90;99.90;;;;;;5033773;28;19905;-52
2022/10/15 06:52:53;;;;;;;;;;;26.90;99.90;;;;;;5015930;28;19951;-53
2022/10/15 06:55:19;;;;;;;;;;;26.90;99.90;;;;;;5033548;28;19959;-53
2022/10/15 06:57:44;;;;;;;;;;;26.90;99.90;;;;;;5033482;28;19963;-52
2022/10/15 07:00:10;;;;;;;;;;;26.90;99.90;;;;;;5033313;28;19913;-53
2022/10/15 07:02:36;;;;;;;;;;;26.90;99.90;;;;;;5033336;28;20059;-53
2022/10/15 07:05:01;;;;;;;;;;;26.90;99.90;;;;;;5033458;28;19909;-52
2022/10/15 07:07:27;;;;;;;;;;;26.90;99.90;;;;;;5033526;28;20253;-52
2022/10/15 07:09:54;;;;;;;;;;;26.90;99.90;;;;;;5033200;28;19912;-52
2022/10/15 07:12:21;;;;;;;;;;;26.90;99.90;;;;;;5048537;28;19912;-52
2022/10/15 07:14:47;;;;;;;;;;;26.90;99.90;;;;;;5033171;28;19959;-52
2022/10/15 07:17:13;;;;;;;;;;;26.90;99.90;;;;;;5033193;28;19920;-52
2022/10/15 07:19:39;;;;;;;;;;;26.90;99.90;;;;;;5033014;28;19906;-52
2022/10/15 07:22:04;;;;;;;;;;;26.90;99.90;;;;;;5033134;28;19992;-53
2022/10/15 07:24:30;;;;;;;;;;;26.90;99.90;;;;;;5033186;28;19912;-53
2022/10/15 07:26:55;;;;;;;;;;;26.90;99.90;;;;;;5032998;28;19956;-53
2022/10/15 07:29:21;;;;;;;;;;;26.90;99.90;;;;;;5033058;28;20433;-53
2022/10/15 07:31:46;;;;;;;;;;;26.90;99.90;;;;;;5032975;28;19943;-53
2022/10/15 07:34:12;;;;;;;;;;;26.90;99.90;;;;;;5032800;28;19905;-53
2022/10/15 07:36:38;;;;;;;;;;;26.90;99.90;;;;;;5032743;28;19920;-54
2022/10/15 07:39:04;;;;;;;;;;;26.90;99.90;;;;;;5032525;28;19970;-53
2022/10/15 07:41:29;;;;;;;;;;;26.90;99.90;;;;;;5032318;28;19909;-52
2022/10/15 07:43:55;;;;;;;;;;;27.00;99.90;;;;;;5032622;28;19901;-53
2022/10/15 07:46:20;;;;;;;;;;;27.00;99.90;;;;;;5032604;28;19905;-53
2022/10/15 07:48:46;;;;;;;;;;;27.00;99.90;;;;;;5032588;28;19913;-52
2022/10/15 07:51:12;;;;;;;;;;;27.00;99.90;;;;;;5032611;28;19905;-53
2022/10/15 07:53:37;;;;;;;;;;;27.10;99.90;;;;;;5032434;28;19905;-53
2022/10/15 07:56:07;;;;;;;;;;;27.10;99.90;;;;;;5032416;28;19913;-53
2022/10/15 07:58:34;;;;;;;;;;;27.10;99.90;;;;;;5032309;28;19920;-53
2022/10/15 08:01:00;;;;;;;;;;;27.10;99.90;;;;;;5032233;28;19957;-54
2022/10/15 08:03:26;;;;;;;;;;;27.20;99.90;;;;;;5032289;28;19908;-54
2022/10/15 08:05:53;;;;;;;;;;;27.20;99.90;;;;;;5031982;28;20278;-53
2022/10/15 08:08:19;;;;;;;;;;;27.20;99.90;;;;;;5047251;28;19908;-53
2022/10/15 08:10:45;;;;;;;;;;;27.20;99.90;;;;;;5031898;28;19905;-53
2022/10/15 08:13:11;;;;;;;;;;;27.20;99.90;;;;;;5031808;28;19905;-53
2022/10/15 08:15:40;;;;;;;;;;;27.30;99.90;;;;;;5031856;28;20344;-53
2022/10/15 08:18:06;;;;;;;;;;;27.20;99.90;;;;;;5031646;28;20261;-52
2022/10/15 08:20:31;;;;;;;;;;;27.30;99.90;;;;;;5031987;28;19911;-52
2022/10/15 08:22:57;;;;;;;;;;;27.30;99.90;;;;;;5031740;28;19959;-53
2022/10/15 08:25:23;;;;;;;;;;;27.30;99.90;;;;;;5031743;28;19961;-54
2022/10/15 08:27:49;;;;;;;;;;;27.30;99.90;;;;;;5031796;28;19916;-53
2022/10/15 08:30:14;;;;;;;;;;;27.30;99.90;;;;;;5031760;28;20349;-53
2022/10/15 08:32:40;;;;;;;;;;;27.30;99.90;;;;;;5031660;28;19944;-53
2022/10/15 08:35:05;;;;;;;;;;;27.40;99.90;;;;;;5031848;28;19948;-53
2022/10/15 08:37:31;;;;;;;;;;;27.40;99.90;;;;;;5046821;28;19917;-53
2022/10/15 08:39:57;;;;;;;;;;;27.40;99.90;;;;;;5031199;28;19905;-53
2022/10/15 08:42:31;;;;;;;;;;;27.40;99.90;;;;;;5031405;28;20373;-52
2022/10/15 08:45:01;;;;;;;;;;;27.40;99.90;;;;;;5031432;28;19913;-52
2022/10/15 08:47:32;;;;;;;;;;;27.40;99.90;;;;;;5031335;28;19916;-52
2022/10/15 08:50:00;;;;;;;;;;;27.40;99.90;;;;;;5031391;28;19905;-52
2022/10/15 08:52:41;;;;;;;;;;;27.40;99.90;;;;;;5031222;28;19967;-53
2022/10/15 08:55:14;;;;;;;;;;;27.50;99.90;;;;;;5030485;28;19932;-52
2022/10/15 08:57:58;;;;;;;;;;;27.50;99.90;;;;;;5031098;28;19935;-52
2022/10/15 09:00:27;;;;;;;;;;;27.50;99.90;;;;;;5030978;28;19923;-53
2022/10/15 09:02:55;;;;;;;;;;;27.50;99.90;;;;;;5031153;28;20348;-52
2022/10/15 09:05:30;;;;;;;;;;;27.50;99.90;;;;;;5031215;28;19909;-52
2022/10/15 09:07:56;;;;;;;;;;;27.50;99.90;;;;;;5029875;28;20276;-53
2022/10/15 09:10:36;;;;;;;;;;;27.50;99.90;;;;;;5031311;28;19905;-53
2022/10/15 09:13:09;;;;;;;;;;;27.50;99.90;;;;;;5030982;28;19944;-52
2022/10/15 09:15:45;;;;;;;;;;;27.60;99.90;;;;;;5031129;28;19916;-52
2022/10/15 09:18:16;;;;;;;;;;;27.60;99.90;;;;;;5030848;28;19964;-52
2022/10/15 09:20:42;;;;;;;;;;;27.60;99.90;;;;;;5030858;28;20315;-52
2022/10/15 09:23:12;;;;;;;;;;;27.60;99.90;;;;;;5031160;28;19929;-52
2022/10/15 09:25:39;;;;;;;;;;;27.60;99.90;;;;;;5031082;28;19912;-52
2022/10/15 09:28:09;;;;;;;;;;;27.70;99.90;;;;;;5031149;28;19955;-52
2022/10/15 09:30:45;;;;;;;;;;;27.70;99.90;;;;;;5030979;28;19905;-52
2022/10/15 09:33:29;;;;;;;;;;;27.70;99.90;;;;;;5030871;28;19905;-53
2022/10/15 09:35:58;;;;;;;;;;;27.70;99.90;;;;;;5030923;28;19905;-52
2022/10/15 09:38:47;;;;;;;;;;;27.80;99.90;;;;;;5030697;28;19913;-52
2022/10/15 09:41:22;;;;;;;;;;;27.80;99.90;;;;;;5030750;28;19909;-52
2022/10/15 09:43:50;;;;;;;;;;;27.80;99.90;;;;;;5030639;28;19928;-52
2022/10/15 09:46:16;;;;;;;;;;;27.90;99.90;;;;;;5030733;28;19905;-53
2022/10/15 09:48:51;;;;;;;;;;;27.90;99.90;;;;;;5030593;28;19915;-53
2022/10/15 09:51:17;;;;;;;;;;;27.80;99.90;;;;;;5030546;28;19905;-52
2022/10/15 09:53:51;;;;;;;;;;;27.90;99.90;;;;;;5030694;28;20400;-52
2022/10/15 09:56:25;;;;;;;;;;;27.90;99.90;;;;;;5030905;28;19939;-52
2022/10/15 09:58:52;;;;;;;;;;;27.90;99.90;;;;;;5045840;28;19913;-53
2022/10/15 10:01:19;;;;;;;;;;;27.90;99.90;;;;;;5030357;28;20512;-52
2022/10/15 10:03:49;;;;;;;;;;;28.00;99.90;;;;;;5030524;28;20000;-53
2022/10/15 10:06:15;;;;;;;;;;;28.00;99.90;;;;;;5033272;28;20415;-52
2022/10/15 10:08:48;;;;;;;;;;;28.00;99.90;;;;;;5034190;28;19905;-52
2022/10/15 10:11:13;;;;;;;;;;;28.10;99.90;;;;;;5032999;28;19927;-52
2022/10/15 10:13:43;;;;;;;;;;;28.10;99.90;;;;;;5034196;28;20353;-52
2022/10/15 10:16:10;;;;;;;;;;;28.10;99.90;;;;;;5034127;28;19917;-52
2022/10/15 10:18:36;;;;;;;;;;;28.20;99.90;;;;;;5034230;28;20016;-52
2022/10/15 10:21:19;;;;;;;;;;;28.20;99.90;;;;;;5034001;28;19912;-53
2022/10/15 10:23:45;;;;;;;;;;;28.20;99.90;;;;;;5033999;28;19944;-52
2022/10/15 10:26:11;;;;;;;;;;;28.30;99.90;;;;;;5034254;28;20332;-53
2022/10/15 10:28:41;;;;;;;;;;;28.30;99.90;;;;;;5032735;28;19913;-52
2022/10/15 10:31:08;;;;;;;;;;;28.30;99.90;;;;;;5032970;28;19912;-52
2022/10/15 10:33:36;;;;;;;;;;;28.30;99.90;;;;;;5033910;28;20332;-52
2022/10/15 10:36:03;;;;;;;;;;;28.40;99.90;;;;;;5033745;28;19979;-52
2022/10/15 10:38:38;;;;;;;;;;;28.40;99.90;;;;;;5033671;28;20284;-52
2022/10/15 10:41:10;;;;;;;;;;;28.40;99.90;;;;;;5033610;28;19905;-56
2022/10/15 10:43:37;;;;;;;;;;;28.50;99.90;;;;;;5033684;28;20000;-52
2022/10/15 10:46:02;;;;;;;;;;;28.50;99.90;;;;;;5033523;28;20323;-52
2022/10/15 10:48:37;;;;;;;;;;;28.50;99.90;;;;;;5033451;28;19905;-52
2022/10/15 10:51:05;;;;;;;;;;;28.50;99.90;;;;;;5033567;28;19909;-53
2022/10/15 10:53:33;;;;;;;;;;;28.60;99.90;;;;;;5033307;28;19959;-52
2022/10/15 10:56:00;;;;;;;;;;;28.60;99.90;;;;;;5031888;28;20003;-52
2022/10/15 10:58:28;;;;;;;;;;;28.60;99.90;;;;;;5033287;28;20051;-52
2022/10/15 11:00:54;;;;;;;;;;;28.60;99.90;;;;;;5032990;28;19917;-52
2022/10/15 11:03:36;;;;;;;;;;;28.60;99.90;;;;;;5033091;28;20283;-52
2022/10/15 11:06:11;;;;;;;;;;;28.60;99.90;;;;;;5033086;28;19909;-52
2022/10/15 11:08:39;;;;;;;;;;;28.70;99.90;;;;;;5032969;28;19905;-53
2022/10/15 11:11:11;;;;;;;;;;;28.80;99.90;;;;;;5033018;28;19912;-53
2022/10/15 11:13:39;;;;;;;;;;;28.70;99.90;;;;;;5032900;28;20000;-52
2022/10/15 11:16:05;;;;;;;;;;;28.80;99.90;;;;;;5032725;28;19905;-52
2022/10/15 11:18:40;;;;;;;;;;;28.80;99.90;;;;;;5032500;28;19920;-52
2022/10/15 11:21:05;;;;;;;;;;;28.80;99.90;;;;;;5033173;28;20319;-52
2022/10/15 11:23:40;;;;;;;;;;;28.80;99.90;;;;;;5032805;28;19909;-53
2022/10/15 11:26:24;;;;;;;;;;;28.90;99.90;;;;;;5033096;28;20352;-53
2022/10/15 11:28:53;;;;;;;;;;;28.90;99.90;;;;;;5048063;28;19909;-52
2022/10/15 11:31:32;;;;;;;;;;;28.90;99.90;;;;;;5032902;28;20392;-52
2022/10/15 11:34:06;;;;;;;;;;;29.00;99.90;;;;;;5032912;28;19912;-52
2022/10/15 11:36:35;;;;;;;;;;;29.00;99.90;;;;;;5032754;28;19996;-52
2022/10/15 11:39:19;;;;;;;;;;;29.00;99.90;;;;;;5032762;28;20273;-53
2022/10/15 11:41:47;;;;;;;;;;;29.00;99.90;;;;;;5032982;28;19905;-52
2022/10/15 11:44:16;;;;;;;;;;;29.00;99.90;;;;;;5047944;28;19905;-52
2022/10/15 11:46:48;;;;;;;;;;;29.10;99.90;;;;;;5032531;28;19913;-52
2022/10/15 11:49:17;;;;;;;;;;;29.10;99.90;;;;;;5032674;28;19911;-52
2022/10/15 11:52:12;;;;;;;;;;;29.20;99.90;;;;;;5032573;28;20423;-52
2022/10/15 11:54:41;;;;;;;;;;;29.10;99.90;;;;;;5022311;28;20297;-52
2022/10/15 11:57:15;;;;;;;;;;;29.20;99.90;;;;;;5032234;28;20388;-52
2022/10/15 11:59:48;;;;;;;;;;;29.20;99.90;;;;;;5032353;28;19912;-52
2022/10/15 12:02:16;;;;;;;;;;;29.20;99.90;;;;;;5032451;28;19975;-53
2022/10/15 12:04:47;;;;;;;;;;;29.30;99.90;;;;;;5032280;28;19908;-52
2022/10/15 12:07:20;;;;;;;;;;;29.30;99.90;;;;;;5032196;28;19909;-53
2022/10/15 12:09:48;;;;;;;;;;;29.30;99.90;;;;;;5032267;28;19905;-52
2022/10/15 12:12:14;;;;;;;;;;;29.40;99.90;;;;;;5032404;28;20363;-52
2022/10/15 12:14:46;;;;;;;;;;;29.40;99.90;;;;;;5031922;28;20000;-53
2022/10/15 12:17:24;;;;;;;;;;;29.40;99.90;;;;;;5031861;28;19933;-52
2022/10/15 12:20:13;;;;;;;;;;;29.40;99.90;;;;;;5031758;28;19905;-53
2022/10/15 12:22:45;;;;;;;;;;;29.40;99.90;;;;;;5024949;28;20276;-52
2022/10/15 12:25:29;;;;;;;;;;;29.40;99.90;;;;;;5031594;28;19905;-53
2022/10/15 12:28:07;;;;;;;;;;;29.50;99.90;;;;;;5031534;28;20296;-53
2022/10/15 12:30:35;;;;;;;;;;;29.50;99.90;;;;;;5031531;28;19905;-53
2022/10/15 12:33:02;;;;;;;;;;;29.50;99.90;;;;;;5031619;28;19905;-53
2022/10/15 12:35:31;;;;;;;;;;;29.60;99.90;;;;;;5031777;28;19905;-53
2022/10/15 12:38:07;;;;;;;;;;;29.60;99.90;;;;;;5031647;28;19959;-52
2022/10/15 12:40:33;;;;;;;;;;;29.60;99.90;;;;;;5031441;28;19992;-53
2022/10/15 12:43:01;;;;;;;;;;;29.60;99.90;;;;;;5031699;28;19959;-53
2022/10/15 12:45:26;;;;;;;;;;;29.60;99.90;;;;;;5031681;28;19948;-52
2022/10/15 12:47:54;;;;;;;;;;;29.60;99.90;;;;;;5031603;28;19943;-52
2022/10/15 12:50:19;;;;;;;;;;;29.60;99.90;;;;;;5031504;28;19911;-52
2022/10/15 12:52:48;;;;;;;;;;;29.70;99.90;;;;;;5031364;28;19905;-52
2022/10/15 12:55:25;;;;;;;;;;;29.70;99.90;;;;;;5031522;28;19999;-52
2022/10/15 12:57:51;;;;;;;;;;;29.70;99.90;;;;;;5030062;28;20301;-52
2022/10/15 13:00:16;;;;;;;;;;;29.70;99.90;;;;;;5031484;28;19995;-52
2022/10/15 13:02:44;;;;;;;;;;;29.80;99.90;;;;;;5031277;28;19909;-52
2022/10/15 13:05:32;;;;;;;;;;;29.80;99.90;;;;;;5031228;28;20428;-53
2022/10/15 13:07:58;;;;;;;;;;;29.80;99.90;;;;;;5031249;28;19905;-55
2022/10/15 13:10:27;;;;;;;;;;;29.80;99.90;;;;;;5031046;28;19959;-52
2022/10/15 13:12:54;;;;;;;;;;;29.90;99.90;;;;;;5031262;28;20253;-52
2022/10/15 13:15:21;;;;;;;;;;;29.90;99.90;;;;;;5031152;28;20340;-52
2022/10/15 13:17:46;;;;;;;;;;;29.90;99.90;;;;;;5031122;28;19924;-53
2022/10/15 13:20:27;;;;;;;;;;;29.90;99.90;;;;;;5031134;28;19905;-52
2022/10/15 13:22:52;;;;;;;;;;;29.90;99.90;;;;;;5031120;28;20340;-53
2022/10/15 13:25:18;;;;;;;;;;;29.90;99.90;;;;;;5031259;28;19912;-52
2022/10/15 13:27:43;;;;;;;;;;;30.00;99.90;;;;;;5031319;28;19995;-53
2022/10/15 13:30:13;;;;;;;;;;;30.00;99.90;;;;;;5031185;28;19905;-52
2022/10/15 13:32:45;;;;;;;;;;;30.10;99.90;;;;;;5030954;28;20265;-52
2022/10/15 13:35:12;;;;;;;;;;;30.10;99.90;;;;;;5031021;28;20248;-52
2022/10/15 13:37:39;;;;;;;;;;;30.10;99.90;;;;;;5030879;28;19913;-52
2022/10/15 13:40:05;;;;;;;;;;;30.10;99.90;;;;;;5031847;28;19966;-52
2022/10/15 13:42:30;;;;;;;;;;;30.10;99.90;;;;;;5034825;28;19909;-52
2022/10/15 13:44:58;;;;;;;;;;;30.10;99.90;;;;;;5035006;28;19959;-53
2022/10/15 13:47:24;;;;;;;;;;;30.10;99.90;;;;;;5034922;28;19913;-53
2022/10/15 13:49:50;;;;;;;;;;;30.10;99.90;;;;;;5035165;28;19908;-53
2022/10/15 13:52:16;;;;;;;;;;;30.20;99.90;;;;;;5034902;28;19909;-53
2022/10/15 13:54:43;;;;;;;;;;;30.20;99.90;;;;;;5034772;28;19967;-53
2022/10/15 13:57:12;;;;;;;;;;;30.20;99.90;;;;;;5034589;28;20347;-52
2022/10/15 13:59:42;;;;;;;;;;;30.20;99.90;;;;;;5034613;28;19911;-53
2022/10/15 14:02:10;;;;;;;;;;;30.30;99.90;;;;;;5034820;28;19905;-55
2022/10/15 14:04:35;;;;;;;;;;;30.30;99.90;;;;;;5034668;28;19951;-53
2022/10/15 14:07:03;;;;;;;;;;;30.30;99.90;;;;;;5034600;28;19905;-52
2022/10/15 14:09:29;;;;;;;;;;;30.30;99.90;;;;;;5034403;28;19909;-52
2022/10/15 14:11:55;;;;;;;;;;;30.40;99.90;;;;;;5034406;28;19913;-52
2022/10/15 14:14:27;;;;;;;;;;;30.40;99.90;;;;;;5034830;28;19905;-53
2022/10/15 14:16:54;;;;;;;;;;;30.40;99.90;;;;;;5034487;28;19913;-52
2022/10/15 14:19:25;;;;;;;;;;;30.40;99.90;;;;;;5034556;28;20375;-52
2022/10/15 14:21:51;;;;;;;;;;;30.40;99.90;;;;;;5034394;28;20027;-52